createdAt,value
2019-01-13T00:00:47.273Z,1.70
2019-01-13T00:05:52.183Z,1.70
2019-01-13T00:10:56.869Z,1.80
2019-01-13T00:16:01.779Z,1.80
2019-01-13T00:21:06.450Z,1.60
2019-01-13T00:26:11.051Z,1.70
2019-01-13T00:31:16.516Z,1.70
2019-01-13T00:36:21.824Z,1.70
2019-01-13T00:41:29.181Z,1.60
2019-01-13T00:46:33.811Z,1.70
2019-01-13T00:51:38.511Z,1.70
2019-01-13T00:56:42.840Z,1.70
2019-01-13T01:01:47.952Z,1.70
2019-01-13T01:06:52.490Z,1.70
2019-01-13T01:12:00.075Z,1.70
2019-01-13T01:17:04.724Z,1.70
2019-01-13T01:22:09.349Z,1.80
2019-01-13T01:27:14.194Z,1.80
2019-01-13T01:32:18.897Z,1.80
2019-01-13T01:37:23.172Z,1.80
2019-01-13T01:42:27.885Z,1.80
2019-01-13T01:47:32.697Z,1.80
2019-01-13T01:52:38.113Z,1.80
2019-01-13T01:57:43.215Z,1.80
2019-01-13T02:02:48.036Z,1.80
2019-01-13T02:07:53.341Z,1.90
2019-01-13T02:12:57.798Z,1.90
2019-01-13T02:18:02.158Z,1.90
2019-01-13T02:23:06.958Z,1.80
2019-01-13T02:28:11.592Z,1.80
2019-01-13T02:33:17.890Z,2.00
2019-01-13T02:38:23.471Z,1.90
2019-01-13T02:43:29.012Z,1.90
2019-01-13T02:48:35.376Z,2.00
2019-01-13T02:53:40.370Z,1.90
2019-01-13T02:58:45.169Z,1.90
2019-01-13T03:03:50.044Z,1.90
2019-01-13T03:08:54.681Z,1.80
2019-01-13T03:13:59.439Z,1.80
2019-01-13T03:19:05.232Z,1.90
2019-01-13T03:24:10.535Z,1.80
2019-01-13T03:29:15.130Z,1.90
2019-01-13T03:34:19.470Z,1.90
2019-01-13T03:39:24.112Z,1.90
2019-01-13T03:44:30.191Z,1.90
2019-01-13T03:49:34.570Z,2.00
2019-01-13T03:54:39.682Z,2.00
2019-01-13T03:59:45.902Z,2.00
2019-01-13T04:04:50.815Z,2.00
2019-01-13T04:09:55.621Z,2.00
2019-01-13T04:15:00.512Z,2.00
2019-01-13T04:20:07.669Z,2.10
2019-01-13T04:25:12.247Z,2.10
2019-01-13T04:30:16.978Z,2.10
2019-01-13T04:35:22.353Z,2.10
2019-01-13T04:40:29.492Z,2.10
2019-01-13T04:45:34.170Z,2.10
2019-01-13T04:50:38.959Z,2.20
2019-01-13T04:55:43.698Z,2.20
2019-01-13T05:00:49.112Z,2.20
2019-01-13T05:05:56.284Z,2.20
2019-01-13T05:11:00.860Z,2.30
2019-01-13T05:16:05.531Z,2.30
2019-01-13T05:21:10.212Z,2.30
2019-01-13T05:26:14.575Z,2.30
2019-01-13T05:31:19.035Z,2.30
2019-01-13T05:36:26.098Z,2.30
2019-01-13T05:41:30.501Z,2.30
2019-01-13T05:46:34.909Z,2.20
2019-01-13T05:51:40.032Z,2.20
2019-01-13T05:56:44.944Z,2.20
2019-01-13T06:01:51.271Z,2.30
2019-01-13T06:06:59.062Z,2.40
2019-01-13T06:12:03.683Z,2.30
2019-01-13T06:17:11.613Z,2.40
2019-01-13T06:22:16.342Z,2.40
2019-01-13T06:27:20.958Z,2.40
2019-01-13T06:32:27.396Z,2.40
2019-01-13T06:37:32.378Z,2.50
2019-01-13T06:42:37.325Z,2.50
2019-01-13T06:47:41.679Z,2.50
2019-01-13T06:52:46.708Z,2.50
2019-01-13T06:57:51.794Z,2.50
2019-01-13T07:02:57.243Z,2.50
2019-01-13T07:08:03.971Z,2.50
2019-01-13T07:13:08.986Z,2.60
2019-01-13T07:18:13.634Z,2.70
2019-01-13T07:23:18.426Z,2.70
2019-01-13T07:28:23.219Z,2.80
2019-01-13T07:33:28.289Z,2.80
2019-01-13T07:38:34.876Z,2.80
2019-01-13T07:43:40.361Z,2.80
2019-01-13T07:48:45.478Z,2.90
2019-01-13T07:53:53.415Z,2.90
2019-01-13T07:58:58.887Z,2.90
2019-01-13T08:04:04.038Z,3.00
2019-01-13T08:09:09.756Z,3.10
2019-01-13T08:14:15.794Z,3.10
2019-01-13T08:19:20.726Z,3.10
2019-01-13T08:24:25.090Z,3.10
2019-01-13T08:29:29.357Z,3.10
2019-01-13T08:34:34.807Z,3.10
2019-01-13T08:39:39.513Z,3.20
2019-01-13T08:44:44.588Z,3.20
2019-01-13T08:49:51.349Z,3.30
2019-01-13T08:54:56.455Z,3.40
2019-01-13T09:00:02.657Z,3.40
2019-01-13T09:05:11.856Z,3.40
2019-01-13T09:10:18.102Z,3.40
2019-01-13T09:15:27.540Z,3.30
2019-01-13T09:20:32.625Z,3.30
2019-01-13T09:25:48.048Z,3.30
2019-01-13T09:30:52.358Z,3.30
2019-01-13T09:35:57.350Z,3.30
2019-01-13T09:41:02.078Z,3.30
2019-01-13T09:46:07.531Z,3.30
2019-01-13T09:51:15.198Z,3.20
2019-01-13T09:56:19.758Z,3.30
2019-01-13T10:01:24.664Z,3.30
2019-01-13T10:06:29.696Z,3.40
2019-01-13T10:11:34.511Z,3.40
2019-01-13T10:16:40.002Z,3.40
2019-01-13T10:21:44.693Z,3.40
2019-01-13T10:26:49.617Z,3.30
2019-01-13T10:31:56.362Z,3.30
2019-01-13T10:37:01.147Z,3.30
2019-01-13T10:42:05.456Z,3.20
2019-01-13T10:47:10.335Z,3.20
2019-01-13T10:52:16.709Z,3.10
2019-01-13T10:57:22.148Z,3.10
2019-01-13T11:02:26.857Z,3.20
2019-01-13T11:07:34.374Z,3.20
2019-01-13T11:12:54.130Z,3.30
2019-01-13T11:18:00.304Z,3.30
2019-01-13T11:23:06.739Z,3.30
2019-01-13T11:28:11.772Z,3.30
2019-01-13T11:33:20.808Z,3.30
2019-01-13T11:38:25.503Z,3.40
2019-01-13T11:43:30.488Z,3.40
2019-01-13T11:48:35.403Z,3.30
2019-01-13T11:53:43.413Z,3.30
2019-01-13T11:58:48.362Z,3.30
2019-01-13T12:03:53.253Z,3.30
2019-01-13T12:08:57.990Z,3.30
2019-01-13T12:14:04.739Z,3.30
2019-01-13T12:19:09.533Z,3.40
2019-01-13T12:24:14.917Z,3.40
2019-01-13T12:29:19.694Z,3.50
2019-01-13T12:34:25.978Z,3.60
2019-01-13T12:39:34.404Z,3.70
2019-01-13T12:44:41.648Z,4.00
2019-01-13T12:49:47.986Z,4.10
2019-01-13T12:54:55.042Z,4.00
2019-01-13T12:59:59.571Z,4.00
2019-01-13T13:05:05.135Z,4.10
2019-01-13T13:10:18.865Z,4.20
2019-01-13T13:15:26.044Z,4.40
2019-01-13T13:20:31.486Z,4.40
2019-01-13T13:25:36.470Z,4.40
2019-01-13T13:30:42.105Z,4.50
2019-01-13T13:35:47.550Z,4.40
2019-01-13T13:40:52.675Z,4.40
2019-01-13T13:45:57.219Z,4.30
2019-01-13T13:51:06.829Z,4.50
2019-01-13T13:56:11.487Z,4.50
2019-01-13T14:01:16.688Z,4.70
2019-01-13T14:06:21.326Z,4.70
2019-01-13T14:11:25.881Z,4.70
2019-01-13T14:16:30.156Z,4.80
2019-01-13T14:21:35.172Z,4.80
2019-01-13T14:26:40.210Z,4.90
2019-01-13T14:31:45.723Z,5.00
2019-01-13T14:36:50.124Z,5.10
2019-01-13T14:41:54.517Z,5.10
2019-01-13T14:46:59.266Z,5.20
2019-01-13T14:52:03.802Z,5.20
2019-01-13T14:57:08.896Z,5.10
2019-01-13T15:02:19.075Z,5.20
2019-01-13T15:07:31.307Z,5.20
2019-01-13T15:12:38.149Z,5.30
2019-01-13T15:17:43.512Z,5.30
2019-01-13T15:22:53.449Z,5.40
2019-01-13T15:27:58.657Z,5.40
2019-01-13T15:33:04.680Z,5.40
2019-01-13T15:38:13.399Z,5.40
2019-01-13T15:43:18.150Z,5.40
2019-01-13T15:48:22.978Z,5.40
2019-01-13T15:53:29.592Z,5.50
2019-01-13T15:58:34.308Z,5.50
2019-01-13T16:03:42.013Z,5.60
2019-01-13T16:08:48.662Z,5.60
2019-01-13T16:13:53.201Z,5.70
2019-01-13T16:18:57.565Z,5.70
2019-01-13T16:24:02.591Z,5.70
2019-01-13T16:29:06.810Z,5.70
2019-01-13T16:34:11.155Z,5.80
2019-01-13T16:39:16.104Z,5.80
2019-01-13T16:44:21.495Z,5.80
2019-01-13T16:49:27.234Z,5.80
2019-01-13T16:54:32.037Z,5.80
2019-01-13T16:59:40.487Z,5.80
2019-01-13T17:04:45.182Z,5.80
2019-01-13T17:09:49.899Z,5.80
2019-01-13T17:14:54.549Z,5.80
2019-01-13T17:19:59.186Z,5.90
2019-01-13T17:25:05.383Z,5.80
2019-01-13T17:30:23.962Z,5.80
2019-01-13T17:35:29.337Z,5.90
2019-01-13T17:40:34.664Z,5.90
2019-01-13T17:45:39.296Z,5.90
2019-01-13T17:50:46.093Z,5.80
2019-01-13T17:55:50.835Z,5.80
2019-01-13T18:01:16.706Z,5.80
2019-01-13T18:06:21.455Z,5.80
2019-01-13T18:11:26.474Z,5.90
2019-01-13T18:16:30.930Z,6.00
2019-01-13T18:21:35.852Z,5.90
2019-01-13T18:26:41.138Z,6.00
2019-01-13T18:31:45.651Z,5.90
2019-01-13T18:36:50.646Z,5.90
2019-01-13T18:41:55.867Z,5.90
2019-01-13T18:47:00.743Z,5.90
2019-01-13T18:52:06.457Z,5.90
2019-01-13T18:57:11.629Z,6.00
2019-01-13T19:02:16.466Z,6.00
2019-01-13T19:07:25.381Z,6.10
2019-01-13T19:12:30.563Z,6.00
2019-01-13T19:17:35.871Z,6.00
2019-01-13T19:22:42.757Z,5.90
2019-01-13T19:27:49.605Z,5.90
2019-01-13T19:32:54.844Z,5.90
2019-01-13T19:38:02.152Z,5.90
2019-01-13T19:43:07.462Z,5.90
2019-01-13T19:48:11.928Z,5.90
2019-01-13T19:53:18.088Z,5.90
2019-01-13T19:58:22.668Z,6.00
2019-01-13T20:03:27.863Z,6.10
2019-01-13T20:08:38.456Z,6.20
2019-01-13T20:13:43.612Z,6.20
2019-01-13T20:18:50.517Z,6.20
2019-01-13T20:23:56.181Z,6.30
2019-01-13T20:29:01.073Z,6.20
2019-01-13T20:34:07.107Z,6.30
2019-01-13T20:39:13.114Z,6.20
2019-01-13T20:44:19.955Z,6.10
2019-01-13T20:49:24.779Z,6.00
2019-01-13T20:54:38.278Z,6.00
2019-01-13T20:59:42.687Z,6.00
2019-01-13T21:04:47.179Z,6.00
2019-01-13T21:09:53.179Z,5.90
2019-01-13T21:15:02.393Z,6.00
2019-01-13T21:20:07.368Z,5.90
2019-01-13T21:25:13.466Z,6.00
2019-01-13T21:30:25.539Z,5.90
2019-01-13T21:35:34.441Z,6.00
2019-01-13T21:40:38.764Z,6.00
2019-01-13T21:45:43.355Z,6.10
2019-01-13T21:50:47.752Z,6.10
2019-01-13T21:55:52.617Z,6.10
2019-01-13T22:00:57.440Z,6.20
2019-01-13T22:06:02.543Z,6.00
2019-01-13T22:11:09.323Z,5.80
2019-01-13T22:16:13.690Z,5.60
2019-01-13T22:21:18.172Z,5.50
2019-01-13T22:26:22.554Z,5.30
2019-01-13T22:31:27.659Z,5.20
2019-01-13T22:36:35.716Z,5.40
2019-01-13T22:41:40.069Z,5.50
2019-01-13T22:46:44.750Z,5.60
2019-01-13T22:51:51.054Z,5.60
2019-01-13T22:56:55.585Z,5.60
2019-01-13T23:02:00.180Z,5.70
2019-01-13T23:07:05.104Z,5.60
2019-01-13T23:12:09.962Z,5.60
2019-01-13T23:17:14.857Z,5.60
2019-01-13T23:22:19.186Z,5.70
2019-01-13T23:27:24.119Z,5.90
2019-01-13T23:32:28.735Z,5.90
2019-01-13T23:37:33.107Z,5.90
2019-01-13T23:42:38.671Z,5.90
2019-01-13T23:47:43.399Z,6.00
2019-01-13T23:52:47.765Z,6.00
2019-01-13T23:57:52.626Z,6.00
